createdAt,value
2022-10-05T00:02:26.376Z,63.62
2022-10-05T00:04:55.799Z,63.83
2022-10-05T00:07:23.934Z,64.21
2022-10-05T00:09:57.357Z,64.50
2022-10-05T00:12:25.142Z,64.77
2022-10-05T00:14:55.258Z,65.82
2022-10-05T00:17:24.030Z,65.13
2022-10-05T00:19:52.715Z,65.25
2022-10-05T00:22:29.761Z,65.29
2022-10-05T00:24:59.929Z,66.09
2022-10-05T00:27:32.624Z,65.11
2022-10-05T00:30:02.618Z,65.44
2022-10-05T00:32:29.140Z,66.08
2022-10-05T00:34:57.141Z,65.41
2022-10-05T00:37:23.732Z,64.65
2022-10-05T00:39:50.317Z,64.44
2022-10-05T00:42:43.653Z,63.37
2022-10-05T00:45:20.553Z,62.72
2022-10-05T00:48:10.987Z,62.91
2022-10-05T00:50:54.658Z,63.48
2022-10-05T00:53:39.813Z,63.27
2022-10-05T00:56:09.352Z,64.18
2022-10-05T00:59:14.161Z,65.09
2022-10-05T01:01:54.813Z,65.12
2022-10-05T01:04:59.148Z,64.39
2022-10-05T01:07:25.745Z,65.61
2022-10-05T01:10:31.379Z,64.56
2022-10-05T01:13:25.095Z,64.25
2022-10-05T01:16:33.415Z,63.11
2022-10-05T01:19:44.329Z,62.40
2022-10-05T01:22:26.070Z,62.42
2022-10-05T01:25:18.879Z,63.92
2022-10-05T01:28:00.203Z,63.96
2022-10-05T01:30:28.497Z,63.74
2022-10-05T01:33:13.364Z,64.44
2022-10-05T01:35:54.618Z,64.84
2022-10-05T01:38:46.877Z,65.29
2022-10-05T01:41:25.429Z,65.01
2022-10-05T01:43:55.890Z,65.02
2022-10-05T01:46:24.441Z,64.69
2022-10-05T01:49:19.985Z,64.29
2022-10-05T01:52:31.448Z,63.70
2022-10-05T01:55:20.060Z,64.62
2022-10-05T01:58:13.587Z,64.72
2022-10-05T02:00:48.372Z,63.84
2022-10-05T02:03:24.559Z,64.35
2022-10-05T02:05:58.660Z,64.26
2022-10-05T02:08:43.211Z,64.31
2022-10-05T02:11:12.897Z,64.58
2022-10-05T02:14:01.254Z,64.85
2022-10-05T02:16:37.078Z,64.99
2022-10-05T02:19:14.479Z,65.29
2022-10-05T02:21:47.107Z,65.93
2022-10-05T02:24:21.535Z,65.77
2022-10-05T02:26:52.193Z,65.76
2022-10-05T02:29:22.186Z,65.45
2022-10-05T02:31:54.513Z,64.60
2022-10-05T02:34:29.672Z,64.83
2022-10-05T02:37:15.070Z,63.36
2022-10-05T02:40:05.035Z,62.65
2022-10-05T02:42:38.594Z,62.99
2022-10-05T02:45:28.039Z,63.00
2022-10-05T02:48:26.997Z,63.01
2022-10-05T02:51:11.715Z,62.62
2022-10-05T02:54:06.125Z,62.82
2022-10-05T02:56:58.827Z,62.96
2022-10-05T02:59:37.862Z,63.66
2022-10-05T03:02:21.127Z,63.86
2022-10-05T03:05:23.973Z,64.68
2022-10-05T03:08:02.754Z,65.42
2022-10-05T03:10:39.422Z,65.20
2022-10-05T03:13:27.815Z,65.31
2022-10-05T03:16:13.425Z,65.18
2022-10-05T03:18:52.479Z,65.84
2022-10-05T03:21:29.492Z,65.67
2022-10-05T03:24:20.899Z,66.20
2022-10-05T03:27:18.783Z,66.21
2022-10-05T03:30:02.596Z,66.32
2022-10-05T03:32:49.254Z,65.55
2022-10-05T03:35:42.494Z,63.90
2022-10-05T03:38:34.733Z,63.73
2022-10-05T03:41:05.289Z,63.58
2022-10-05T03:44:04.399Z,63.07
2022-10-05T03:46:47.140Z,62.65
2022-10-05T03:49:51.750Z,63.02
2022-10-05T03:52:50.253Z,61.86
2022-10-05T03:55:37.057Z,61.46
2022-10-05T03:58:14.197Z,62.44
2022-10-05T04:00:44.990Z,62.36
2022-10-05T04:03:38.410Z,61.94
2022-10-05T04:06:18.150Z,62.69
2022-10-05T04:08:56.536Z,61.90
2022-10-05T04:11:31.701Z,62.02
2022-10-05T04:14:07.178Z,61.75
2022-10-05T04:16:44.870Z,62.17
2022-10-05T04:19:32.569Z,62.47
2022-10-05T04:22:06.273Z,63.54
2022-10-05T04:24:41.861Z,63.22
2022-10-05T04:27:16.293Z,62.62
2022-10-05T04:29:51.530Z,62.48
2022-10-05T04:32:38.516Z,62.58
2022-10-05T04:35:25.489Z,63.30
2022-10-05T04:38:17.213Z,63.02
2022-10-05T04:41:02.913Z,63.99
2022-10-05T04:43:48.159Z,64.63
2022-10-05T04:46:38.290Z,65.29
2022-10-05T04:49:39.470Z,65.58
2022-10-05T04:52:22.627Z,65.80
2022-10-05T04:55:23.731Z,65.75
2022-10-05T04:58:07.714Z,66.56
2022-10-05T05:01:06.247Z,66.59
2022-10-05T05:03:45.030Z,67.25
2022-10-05T05:06:36.474Z,66.80
2022-10-05T05:09:09.393Z,66.53
2022-10-05T05:11:54.896Z,66.61
2022-10-05T05:14:21.888Z,66.71
2022-10-05T05:17:10.803Z,67.89
2022-10-05T05:20:13.642Z,68.11
2022-10-05T05:23:18.181Z,68.75
2022-10-05T05:26:11.030Z,69.22
2022-10-05T05:28:47.096Z,69.49
2022-10-05T05:31:38.294Z,69.49
2022-10-05T05:34:25.015Z,69.07
2022-10-05T05:37:01.993Z,69.11
2022-10-05T05:40:07.810Z,68.78
2022-10-05T05:42:45.122Z,68.85
2022-10-05T05:45:26.623Z,67.83
2022-10-05T05:47:54.983Z,67.15
2022-10-05T05:50:32.168Z,66.82
2022-10-05T05:53:13.684Z,65.69
2022-10-05T05:55:46.479Z,66.07
2022-10-05T05:58:25.158Z,66.32
2022-10-05T06:01:32.831Z,66.73
2022-10-05T06:04:14.704Z,66.18
2022-10-05T06:06:47.251Z,66.11
2022-10-05T06:09:31.162Z,67.18
2022-10-05T06:12:14.078Z,66.98
2022-10-05T06:14:47.988Z,66.77
2022-10-05T06:17:32.759Z,67.29
2022-10-05T06:20:05.324Z,67.36
2022-10-05T06:22:40.846Z,67.32
2022-10-05T06:25:13.629Z,66.38
2022-10-05T06:28:03.681Z,65.09
2022-10-05T06:30:54.927Z,63.94
2022-10-05T06:33:39.372Z,63.89
2022-10-05T06:36:32.776Z,63.77
2022-10-05T06:39:31.353Z,64.73
2022-10-05T06:42:14.724Z,64.25
2022-10-05T06:45:22.482Z,63.23
2022-10-05T06:48:30.492Z,63.61
2022-10-05T06:51:25.879Z,63.70
2022-10-05T06:54:27.718Z,64.11
2022-10-05T06:57:15.569Z,63.83
2022-10-05T07:00:01.899Z,64.19
2022-10-05T07:02:48.261Z,63.21
2022-10-05T07:05:52.360Z,63.90
2022-10-05T07:08:38.179Z,65.46
2022-10-05T07:11:11.174Z,65.19
2022-10-05T07:13:51.320Z,65.98
2022-10-05T07:16:30.202Z,67.22
2022-10-05T07:19:19.537Z,67.50
2022-10-05T07:22:17.026Z,68.04
2022-10-05T07:25:10.357Z,68.08
2022-10-05T07:28:03.564Z,68.28
2022-10-05T07:30:38.589Z,69.00
2022-10-05T07:33:20.664Z,68.35
2022-10-05T07:36:30.843Z,68.91
2022-10-05T07:39:06.707Z,68.31
2022-10-05T07:41:44.059Z,68.26
2022-10-05T07:44:22.534Z,68.76
2022-10-05T07:46:58.479Z,69.13
2022-10-05T07:49:59.505Z,69.29
2022-10-05T07:52:40.149Z,69.46
2022-10-05T07:55:36.898Z,70.14
2022-10-05T07:58:43.608Z,70.29
2022-10-05T08:01:20.776Z,70.22
2022-10-05T08:04:09.717Z,70.72
2022-10-05T08:07:01.727Z,70.44
2022-10-05T08:09:50.114Z,71.16
2022-10-05T08:12:50.935Z,71.17
2022-10-05T08:15:28.643Z,69.26
2022-10-05T08:18:02.440Z,68.26
2022-10-05T08:20:37.646Z,68.55
2022-10-05T08:23:04.109Z,68.15
2022-10-05T08:25:39.767Z,68.16
2022-10-05T08:28:24.256Z,67.83
2022-10-05T08:31:16.266Z,67.71
2022-10-05T08:34:15.722Z,69.54
2022-10-05T08:36:56.106Z,69.07
2022-10-05T08:39:29.531Z,68.96
2022-10-05T08:42:41.407Z,68.00
2022-10-05T08:45:21.140Z,67.61
2022-10-05T08:48:06.271Z,66.59
2022-10-05T08:50:38.845Z,66.62
2022-10-05T08:53:20.510Z,66.87
2022-10-05T08:55:46.860Z,65.81
2022-10-05T08:58:19.066Z,67.08
2022-10-05T09:00:56.612Z,65.88
2022-10-05T09:03:34.962Z,66.54
2022-10-05T09:06:29.377Z,66.68
2022-10-05T09:09:10.938Z,66.59
2022-10-05T09:12:08.936Z,66.91
2022-10-05T09:15:25.285Z,66.88
2022-10-05T09:18:31.246Z,66.08
2022-10-05T09:21:10.668Z,65.90
2022-10-05T09:23:46.261Z,65.70
2022-10-05T09:26:40.590Z,63.84
2022-10-05T09:29:31.943Z,61.66
2022-10-05T09:32:16.437Z,61.74
2022-10-05T09:34:57.932Z,63.06
2022-10-05T09:37:33.635Z,62.45
2022-10-05T09:40:22.017Z,62.14
2022-10-05T09:43:08.272Z,62.05
2022-10-05T09:46:06.885Z,63.19
2022-10-05T09:48:36.056Z,63.38
2022-10-05T09:51:23.214Z,61.46
2022-10-05T09:54:39.553Z,62.54
2022-10-05T09:57:30.967Z,62.67
2022-10-05T10:03:13.760Z,59.25
2022-10-05T10:06:23.275Z,59.24
2022-10-05T10:09:02.045Z,60.54
2022-10-05T10:11:28.551Z,60.81
2022-10-05T10:14:19.858Z,60.88
2022-10-05T10:17:17.389Z,58.33
2022-10-05T10:20:02.198Z,58.47
2022-10-05T10:22:50.075Z,56.77
2022-10-05T10:25:53.722Z,58.74
2022-10-05T10:29:03.515Z,57.75
2022-10-05T10:31:51.430Z,57.01
2022-10-05T10:34:39.938Z,59.17
2022-10-05T10:37:37.307Z,58.71
2022-10-05T10:40:30.973Z,55.79
2022-10-05T10:43:10.061Z,56.22
2022-10-05T10:45:56.278Z,57.29
2022-10-05T10:48:28.506Z,56.54
2022-10-05T10:51:17.679Z,55.15
2022-10-05T10:54:21.985Z,55.82
2022-10-05T10:57:06.066Z,54.78
2022-10-05T11:00:11.144Z,53.57
2022-10-05T11:02:51.164Z,54.19
2022-10-05T11:05:23.734Z,54.00
2022-10-05T11:08:15.664Z,52.21
2022-10-05T11:10:54.308Z,53.69
2022-10-05T11:13:52.731Z,54.24
2022-10-05T11:16:27.906Z,52.08
2022-10-05T11:19:16.018Z,52.65
2022-10-05T11:22:13.741Z,53.64
2022-10-05T11:24:58.556Z,51.60
2022-10-05T11:27:46.360Z,51.54
2022-10-05T11:30:52.187Z,53.00
2022-10-05T11:33:43.707Z,49.36
2022-10-05T11:36:47.505Z,50.31
2022-10-05T11:39:40.451Z,49.99
2022-10-05T11:42:17.627Z,50.01
2022-10-05T11:44:59.596Z,49.79
2022-10-05T11:47:36.856Z,47.94
2022-10-05T11:50:20.363Z,48.50
2022-10-05T11:53:06.002Z,48.89
2022-10-05T11:55:57.591Z,49.80
2022-10-05T11:58:33.626Z,49.71
2022-10-05T12:01:34.530Z,47.78
2022-10-05T12:04:19.857Z,47.30
2022-10-05T12:06:58.362Z,45.42
2022-10-05T12:10:06.017Z,45.86
2022-10-05T12:12:39.361Z,45.94
2022-10-05T12:15:25.840Z,47.29
2022-10-05T12:18:04.651Z,44.06
2022-10-05T12:21:00.350Z,44.14
2022-10-05T12:23:43.991Z,48.02
2022-10-05T12:26:15.946Z,43.58
2022-10-05T12:28:47.599Z,45.19
2022-10-05T12:31:20.987Z,43.84
2022-10-05T12:34:19.924Z,42.66
2022-10-05T12:37:05.825Z,42.77
2022-10-05T12:39:40.949Z,42.43
2022-10-05T12:42:42.047Z,41.06
2022-10-05T12:45:14.537Z,40.29
2022-10-05T12:47:53.615Z,39.76
2022-10-05T12:50:28.177Z,40.07
2022-10-05T12:53:09.514Z,39.13
2022-10-05T12:55:40.075Z,38.28
2022-10-05T12:58:18.606Z,39.19
2022-10-05T13:01:11.971Z,37.34
2022-10-05T13:03:52.202Z,39.96
2022-10-05T13:06:35.401Z,40.21
2022-10-05T13:09:17.512Z,39.20
2022-10-05T13:11:55.863Z,37.29
2022-10-05T13:14:45.325Z,35.54
2022-10-05T13:17:20.531Z,35.91
2022-10-05T13:19:56.392Z,36.92
2022-10-05T13:22:46.315Z,39.16
2022-10-05T13:25:56.893Z,36.87
2022-10-05T13:28:50.054Z,36.45
2022-10-05T13:31:27.641Z,35.24
2022-10-05T13:34:03.358Z,33.42
2022-10-05T13:36:48.749Z,33.39
2022-10-05T13:39:44.399Z,33.70
2022-10-05T13:42:32.796Z,34.97
2022-10-05T13:45:12.945Z,34.90
2022-10-05T13:48:18.162Z,34.23
2022-10-05T13:51:04.522Z,34.95
2022-10-05T13:53:48.106Z,36.14
2022-10-05T13:56:25.963Z,33.18
2022-10-05T13:59:15.905Z,33.70
2022-10-05T14:02:08.526Z,31.68
2022-10-05T14:04:57.854Z,32.00
2022-10-05T14:07:37.786Z,33.35
2022-10-05T14:10:11.505Z,31.39
2022-10-05T14:12:43.372Z,32.06
2022-10-05T14:15:19.873Z,31.96
2022-10-05T14:17:46.582Z,32.56
2022-10-05T14:20:24.633Z,32.65
2022-10-05T14:22:57.668Z,31.84
2022-10-05T14:25:24.286Z,32.11
2022-10-05T14:27:59.690Z,30.76
2022-10-05T14:30:28.899Z,31.75
2022-10-05T14:33:04.592Z,31.06
2022-10-05T14:35:37.171Z,33.20
2022-10-05T14:38:29.689Z,33.67
2022-10-05T14:41:07.945Z,33.14
2022-10-05T14:43:34.962Z,34.71
2022-10-05T14:46:14.668Z,33.05
2022-10-05T14:48:43.480Z,33.10
2022-10-05T14:51:12.845Z,35.13
2022-10-05T14:53:43.476Z,35.95
2022-10-05T14:56:29.864Z,35.56
2022-10-05T14:59:13.531Z,36.15
2022-10-05T15:01:58.857Z,35.45
2022-10-05T15:04:42.791Z,35.22
2022-10-05T15:07:11.205Z,35.42
2022-10-05T15:09:56.136Z,35.58
2022-10-05T15:12:29.257Z,35.43
2022-10-05T15:15:11.292Z,35.34
2022-10-05T15:17:52.554Z,36.15
2022-10-05T15:20:33.794Z,36.29
2022-10-05T15:23:12.852Z,36.30
2022-10-05T15:26:01.141Z,35.95
2022-10-05T15:28:48.303Z,36.22
2022-10-05T15:31:36.050Z,36.05
2022-10-05T15:34:16.371Z,37.12
2022-10-05T15:36:54.536Z,37.24
2022-10-05T15:39:38.068Z,38.32
2022-10-05T15:42:15.163Z,36.54
2022-10-05T15:44:57.398Z,36.99
2022-10-05T15:47:44.711Z,36.20
2022-10-05T15:50:32.826Z,36.84
2022-10-05T15:53:10.640Z,37.08
2022-10-05T15:55:55.682Z,37.36
2022-10-05T15:58:56.965Z,36.54
2022-10-05T16:01:29.908Z,36.72
2022-10-05T16:04:15.098Z,37.20
2022-10-05T16:07:06.232Z,36.54
2022-10-05T16:09:45.243Z,36.02
2022-10-05T16:12:22.167Z,37.67
2022-10-05T16:14:54.534Z,37.92
2022-10-05T16:17:21.104Z,37.62
2022-10-05T16:20:14.579Z,37.32
2022-10-05T16:23:17.652Z,36.78
2022-10-05T16:25:47.148Z,37.86
2022-10-05T16:28:13.669Z,37.32
2022-10-05T16:30:59.260Z,38.35
2022-10-05T16:33:54.307Z,38.01
2022-10-05T16:36:36.108Z,38.26
2022-10-05T16:39:25.739Z,39.13
2022-10-05T16:42:18.567Z,39.28
2022-10-05T16:44:58.145Z,39.42
2022-10-05T16:47:50.009Z,39.90
2022-10-05T16:50:49.510Z,38.93
2022-10-05T16:53:30.483Z,39.38
2022-10-05T16:56:01.538Z,42.46
2022-10-05T16:58:46.730Z,43.52
2022-10-05T17:01:31.779Z,41.43
2022-10-05T17:04:05.881Z,41.76
2022-10-05T17:06:54.053Z,45.06
2022-10-05T17:09:29.718Z,46.08
2022-10-05T17:12:14.011Z,44.95
2022-10-05T17:14:58.061Z,43.20
2022-10-05T17:17:51.829Z,45.25
2022-10-05T17:20:40.243Z,45.73
2022-10-05T17:23:30.253Z,45.96
2022-10-05T17:26:24.658Z,46.25
2022-10-05T17:28:51.169Z,46.20
2022-10-05T17:31:22.183Z,45.75
2022-10-05T17:34:07.125Z,45.84
2022-10-05T17:36:48.751Z,45.61
2022-10-05T17:39:20.097Z,46.63
2022-10-05T17:41:47.160Z,47.72
2022-10-05T17:44:15.882Z,47.15
2022-10-05T17:46:48.222Z,47.73
2022-10-05T17:50:12.353Z,48.53
2022-10-05T17:53:01.898Z,49.56
2022-10-05T17:55:31.527Z,50.68
2022-10-05T17:58:18.817Z,52.03
2022-10-05T18:01:06.921Z,52.53
2022-10-05T18:03:51.311Z,52.12
2022-10-05T18:06:24.291Z,51.84
2022-10-05T18:09:22.975Z,53.19
2022-10-05T18:11:55.551Z,54.37
2022-10-05T18:14:25.119Z,54.71
2022-10-05T18:17:03.822Z,54.76
2022-10-05T18:19:32.310Z,53.98
2022-10-05T18:22:23.668Z,54.42
2022-10-05T18:25:04.221Z,55.08
2022-10-05T18:27:39.530Z,54.82
2022-10-05T18:30:15.853Z,54.63
2022-10-05T18:32:42.486Z,54.32
2022-10-05T18:35:37.956Z,54.57
2022-10-05T18:38:25.217Z,54.50
2022-10-05T18:40:59.874Z,54.76
2022-10-05T18:43:37.214Z,55.14
2022-10-05T18:46:09.445Z,55.10
2022-10-05T18:48:57.569Z,55.23
2022-10-05T18:51:54.135Z,55.68
2022-10-05T18:54:43.158Z,55.27
2022-10-05T18:57:38.626Z,55.06
2022-10-05T19:00:16.247Z,55.26
2022-10-05T19:02:57.128Z,56.06
2022-10-05T19:05:48.046Z,56.59
2022-10-05T19:08:25.606Z,56.71
2022-10-05T19:11:19.838Z,56.96
2022-10-05T19:13:53.862Z,57.03
2022-10-05T19:16:28.224Z,57.25
2022-10-05T19:19:32.450Z,57.03
2022-10-05T19:22:09.401Z,56.12
2022-10-05T19:24:42.497Z,55.54
2022-10-05T19:27:37.270Z,56.27
2022-10-05T19:30:22.888Z,58.70
2022-10-05T19:33:22.637Z,57.92
2022-10-05T19:36:11.405Z,58.81
2022-10-05T19:39:00.756Z,59.19
2022-10-05T19:42:00.617Z,59.26
2022-10-05T19:44:47.459Z,59.00
2022-10-05T19:47:48.034Z,58.44
2022-10-05T19:50:23.721Z,58.93
2022-10-05T19:52:57.246Z,58.62
2022-10-05T19:55:34.612Z,58.68
2022-10-05T19:58:01.463Z,58.83
2022-10-05T20:00:33.938Z,58.33
2022-10-05T20:03:18.603Z,59.25
2022-10-05T20:05:45.728Z,59.17
2022-10-05T20:08:17.104Z,59.35
2022-10-05T20:10:44.512Z,58.58
2022-10-05T20:13:22.511Z,58.39
2022-10-05T20:16:27.753Z,58.55
2022-10-05T20:19:12.868Z,58.49
2022-10-05T20:21:42.319Z,58.59
2022-10-05T20:24:11.898Z,58.98
2022-10-05T20:27:04.345Z,58.97
2022-10-05T20:29:39.139Z,59.00
2022-10-05T20:32:12.223Z,58.94
2022-10-05T20:34:43.845Z,58.80
2022-10-05T20:37:13.281Z,58.81
2022-10-05T20:39:41.008Z,58.71
2022-10-05T20:42:08.769Z,58.78
2022-10-05T20:44:36.528Z,59.33
2022-10-05T20:47:03.893Z,59.94
2022-10-05T20:49:31.771Z,59.71
2022-10-05T20:51:58.888Z,59.39
2022-10-05T20:54:26.879Z,59.05
2022-10-05T20:56:55.657Z,58.89
2022-10-05T20:59:24.215Z,58.79
2022-10-05T21:01:51.631Z,58.95
2022-10-05T21:04:20.072Z,59.65
2022-10-05T21:06:46.874Z,59.25
2022-10-05T21:09:15.255Z,59.01
2022-10-05T21:11:42.508Z,58.33
2022-10-05T21:14:09.989Z,58.63
2022-10-05T21:16:38.086Z,58.64
2022-10-05T21:19:06.903Z,58.24
2022-10-05T21:21:33.443Z,58.21
2022-10-05T21:24:02.744Z,58.93
2022-10-05T21:26:30.009Z,59.41
2022-10-05T21:28:58.352Z,59.11
2022-10-05T21:31:25.724Z,58.92
2022-10-05T21:33:52.682Z,58.69
2022-10-05T21:36:23.821Z,58.25
2022-10-05T21:38:52.697Z,58.22
2022-10-05T21:41:19.970Z,58.36
2022-10-05T21:43:46.762Z,58.20
2022-10-05T21:46:18.454Z,58.19
2022-10-05T21:48:45.176Z,58.29
2022-10-05T21:51:16.896Z,57.99
2022-10-05T21:53:51.579Z,58.11
2022-10-05T21:56:21.572Z,58.09
2022-10-05T21:58:49.806Z,57.84
2022-10-05T22:01:22.428Z,57.80
2022-10-05T22:03:49.523Z,57.82
2022-10-05T22:06:18.924Z,57.58
2022-10-05T22:08:45.597Z,57.11
2022-10-05T22:11:15.803Z,56.87
2022-10-05T22:13:45.479Z,56.29
2022-10-05T22:16:13.584Z,56.38
2022-10-05T22:18:40.473Z,56.54
2022-10-05T22:21:09.164Z,56.69
2022-10-05T22:23:35.948Z,56.31
2022-10-05T22:26:03.927Z,55.66
2022-10-05T22:28:32.140Z,55.57
2022-10-05T22:31:03.130Z,55.73
2022-10-05T22:33:29.750Z,55.56
2022-10-05T22:35:59.249Z,56.03
2022-10-05T22:38:27.124Z,55.86
2022-10-05T22:40:53.930Z,55.72
2022-10-05T22:43:20.454Z,55.50
2022-10-05T22:45:47.041Z,55.83
2022-10-05T22:48:13.762Z,55.88
2022-10-05T22:50:40.314Z,56.12
2022-10-05T22:53:06.859Z,56.00
2022-10-05T22:55:33.433Z,56.33
2022-10-05T22:58:01.260Z,56.28
2022-10-05T23:00:46.483Z,56.09
2022-10-05T23:03:15.657Z,56.39
2022-10-05T23:05:42.309Z,56.47
2022-10-05T23:08:08.855Z,56.59
2022-10-05T23:10:35.481Z,56.56
2022-10-05T23:13:02.591Z,56.76
2022-10-05T23:15:29.195Z,56.49
2022-10-05T23:17:58.333Z,56.29
2022-10-05T23:20:24.859Z,56.45
2022-10-05T23:22:51.555Z,56.57
2022-10-05T23:25:18.791Z,56.29
2022-10-05T23:27:45.329Z,56.37
2022-10-05T23:30:12.796Z,56.81
2022-10-05T23:32:44.340Z,57.10
2022-10-05T23:35:12.980Z,57.28
2022-10-05T23:37:41.388Z,57.15
2022-10-05T23:40:11.665Z,56.96
2022-10-05T23:42:41.719Z,57.22
2022-10-05T23:45:10.300Z,57.49
2022-10-05T23:47:37.306Z,57.10
2022-10-05T23:50:06.896Z,56.79
2022-10-05T23:52:34.410Z,57.38
2022-10-05T23:55:02.008Z,57.46
2022-10-05T23:57:28.562Z,57.18
2022-10-05T23:59:56.205Z,57.26
